Time;durP1;ratioP1;P1;durP2;ratioP2;P2;SDS_P1;SDS_P2;PMS_P1;PMS_P2;Temp;Humidity;BMP_temperature;BMP_pressure;BME280_temperature;BME280_humidity;BME280_pressure;Samples;Min_cycle;Max_cycle;Signal;HPM_P1;HPM_P2
2021/05/28 00:02:10;;;;;;;1.57;0.90;;;10.40;99.90;;;;;;5078757;28;20172;-79
2021/05/28 00:04:36;;;;;;;2.00;1.00;;;10.40;99.90;;;;;;5096902;28;20186;-79
2021/05/28 00:07:02;;;;;;;2.20;0.90;;;10.40;99.90;;;;;;5095945;28;20176;-80
2021/05/28 00:09:27;;;;;;;3.60;1.17;;;10.40;99.90;;;;;;5095656;28;20179;-79
2021/05/28 00:11:53;;;;;;;2.00;1.03;;;10.40;99.90;;;;;;5095986;28;20488;-80
2021/05/28 00:14:19;;;;;;;3.07;0.93;;;10.40;99.90;;;;;;5112919;28;20649;-80
2021/05/28 00:16:45;;;;;;;1.17;1.00;;;10.40;99.90;;;;;;5095604;28;20200;-80
2021/05/28 00:19:12;;;;;;;1.20;0.70;;;10.30;99.90;;;;;;5082470;28;20175;-80
2021/05/28 00:21:38;;;;;;;1.57;1.00;;;10.30;99.90;;;;;;5082768;28;20210;-80
2021/05/28 00:24:05;;;;;;;1.40;1.03;;;10.30;99.90;;;;;;5082233;28;20173;-80
2021/05/28 00:26:31;;;;;;;1.67;0.80;;;10.30;99.90;;;;;;5103627;28;20236;-80
2021/05/28 00:28:57;;;;;;;2.20;1.10;;;10.20;99.90;;;;;;5103989;28;20179;-80
2021/05/28 00:31:23;;;;;;;5.47;1.20;;;10.20;99.90;;;;;;5103530;28;20563;-80
2021/05/28 00:33:48;;;;;;;3.30;1.20;;;10.20;99.90;;;;;;5087090;28;20176;-80
2021/05/28 00:36:14;;;;;;;1.10;1.00;;;10.10;99.90;;;;;;5104190;28;20183;-80
2021/05/28 00:38:40;;;;;;;1.23;1.10;;;10.00;99.90;;;;;;5086903;28;20311;-80
2021/05/28 00:41:06;;;;;;;1.40;1.00;;;10.00;99.90;;;;;;5104608;28;20191;-80
2021/05/28 00:43:31;;;;;;;3.37;1.37;;;10.00;99.90;;;;;;5087005;28;20664;-80
2021/05/28 00:45:57;;;;;;;1.40;1.00;;;9.90;99.90;;;;;;5086452;28;20182;-79
2021/05/28 00:48:23;;;;;;;1.47;1.13;;;9.90;99.90;;;;;;5086552;28;20191;-80
2021/05/28 00:50:48;;;;;;;3.97;1.27;;;9.90;99.90;;;;;;5086795;28;20206;-80
2021/05/28 00:53:14;;;;;;;2.80;1.13;;;9.80;99.90;;;;;;5087688;28;20203;-80
2021/05/28 00:55:40;;;;;;;3.20;1.17;;;9.80;99.90;;;;;;5086831;28;20236;-80
2021/05/28 00:58:05;;;;;;;2.87;1.33;;;9.70;99.90;;;;;;5104276;28;20217;-80
2021/05/28 01:00:31;;;;;;;1.97;1.00;;;9.80;99.90;;;;;;5086583;28;20205;-80
2021/05/28 01:02:57;;;;;;;4.43;1.30;;;9.70;99.90;;;;;;5103636;28;20240;-80
2021/05/28 01:05:22;;;;;;;2.17;1.10;;;9.70;99.90;;;;;;5120768;28;20238;-80
2021/05/28 01:07:48;;;;;;;3.17;1.40;;;9.70;99.90;;;;;;5120253;28;20174;-80
2021/05/28 01:10:14;;;;;;;6.00;1.20;;;9.60;99.90;;;;;;5103501;28;20603;-80
2021/05/28 01:12:43;;;;;;;3.80;1.40;;;9.60;99.90;;;;;;5103261;28;20203;-80
2021/05/28 01:15:09;;;;;;;2.03;1.23;;;9.60;99.90;;;;;;5103329;28;20167;-80
2021/05/28 01:17:35;;;;;;;2.10;1.17;;;9.60;99.90;;;;;;5103674;28;20171;-81
2021/05/28 01:20:03;;;;;;;1.27;0.93;;;9.60;99.90;;;;;;5085939;28;20202;-80
2021/05/28 01:22:29;;;;;;;1.57;1.20;;;9.50;99.90;;;;;;5087002;28;20267;-81
2021/05/28 01:24:54;;;;;;;1.83;1.23;;;9.50;99.90;;;;;;5119696;28;20254;-80
2021/05/28 01:27:23;;;;;;;3.83;2.20;;;9.50;99.90;;;;;;5086221;28;20179;-80
2021/05/28 01:29:49;;;;;;;3.03;1.00;;;9.40;99.90;;;;;;5084902;28;20367;-80
2021/05/28 01:32:16;;;;;;;3.57;1.40;;;9.40;99.90;;;;;;5085575;28;20219;-80
2021/05/28 01:34:42;;;;;;;2.83;1.00;;;9.40;99.90;;;;;;5085458;28;20190;-81
2021/05/28 01:37:07;;;;;;;2.30;1.27;;;9.30;99.90;;;;;;5103356;28;20171;-80
2021/05/28 01:39:33;;;;;;;2.80;1.00;;;9.30;99.90;;;;;;5102764;28;20196;-81
2021/05/28 01:41:59;;;;;;;2.47;1.40;;;9.20;99.90;;;;;;5086218;28;20178;-80
2021/05/28 01:44:24;;;;;;;2.20;1.20;;;9.10;99.90;;;;;;5084934;28;20179;-80
2021/05/28 01:46:50;;;;;;;1.40;1.10;;;9.10;99.90;;;;;;5084768;28;20232;-81
2021/05/28 01:49:16;;;;;;;3.97;1.20;;;9.00;99.90;;;;;;5118102;28;20282;-80
2021/05/28 01:51:50;;;;;;;1.97;1.23;;;9.10;99.90;;;;;;5085848;28;20465;-81
2021/05/28 01:54:17;;;;;;;2.20;1.13;;;9.00;99.90;;;;;;5085815;28;20218;-81
2021/05/28 01:56:46;;;;;;;2.03;1.10;;;9.00;99.90;;;;;;5102078;28;20178;-80
2021/05/28 01:59:17;;;;;;;1.57;1.27;;;9.00;99.90;;;;;;5102067;28;20217;-80
2021/05/28 02:01:43;;;;;;;2.23;1.20;;;8.90;99.90;;;;;;5086651;28;20207;-80
2021/05/28 02:04:10;;;;;;;1.50;1.27;;;8.90;99.90;;;;;;5109180;28;20183;-79
2021/05/28 02:06:36;;;;;;;2.20;1.47;;;8.90;99.90;;;;;;5090235;28;20171;-80
2021/05/28 02:09:01;;;;;;;2.53;1.53;;;8.90;99.90;;;;;;5125876;28;20332;-80
2021/05/28 02:11:27;;;;;;;1.87;1.30;;;8.80;99.90;;;;;;5125426;28;20246;-80
2021/05/28 02:13:53;;;;;;;1.43;1.23;;;8.80;99.90;;;;;;5108638;28;20181;-79
2021/05/28 02:16:18;;;;;;;1.93;1.40;;;8.70;99.90;;;;;;5124797;28;20271;-79
2021/05/28 02:18:44;;;;;;;1.77;1.07;;;8.70;99.90;;;;;;5108818;28;20235;-80
2021/05/28 02:21:09;;;;;;;2.03;1.30;;;8.60;99.90;;;;;;5090266;28;20575;-80
2021/05/28 02:23:35;;;;;;;1.80;1.17;;;8.60;99.90;;;;;;5090847;28;20743;-79
2021/05/28 02:26:01;;;;;;;1.70;1.10;;;8.50;99.90;;;;;;5106783;28;20201;-79
2021/05/28 02:28:27;;;;;;;1.13;1.03;;;8.50;99.90;;;;;;5089228;28;20175;-79
2021/05/28 02:30:52;;;;;;;3.57;1.40;;;8.40;99.90;;;;;;5106537;28;20199;-79
2021/05/28 02:33:18;;;;;;;1.80;1.30;;;8.40;99.90;;;;;;5089871;28;20203;-79
2021/05/28 02:35:45;;;;;;;2.53;1.50;;;8.30;99.90;;;;;;5090225;28;20178;-79
2021/05/28 02:38:13;;;;;;;2.17;1.33;;;8.30;99.90;;;;;;5123686;28;20175;-80
2021/05/28 02:40:39;;;;;;;1.70;1.20;;;8.20;99.90;;;;;;5106171;28;20200;-79
2021/05/28 02:43:05;;;;;;;4.70;1.47;;;8.20;99.90;;;;;;5089449;28;20180;-80
2021/05/28 02:45:30;;;;;;;1.57;1.27;;;8.10;99.90;;;;;;5106106;28;20243;-79
2021/05/28 02:47:58;;;;;;;3.13;1.70;;;8.20;99.90;;;;;;5105970;28;20185;-79
2021/05/28 02:50:24;;;;;;;3.43;1.50;;;8.10;99.90;;;;;;5089472;28;20213;-79
2021/05/28 02:52:50;;;;;;;3.03;1.50;;;8.10;99.90;;;;;;5117523;28;20230;-79
2021/05/28 02:55:15;;;;;;;2.17;1.47;;;8.00;99.90;;;;;;5068277;28;20200;-79
2021/05/28 02:57:42;;;;;;;2.67;1.53;;;8.00;99.90;;;;;;5085636;28;20183;-79
2021/05/28 03:00:09;;;;;;;2.60;1.60;;;7.90;99.90;;;;;;5084509;28;20203;-80
2021/05/28 03:02:36;;;;;;;1.57;1.23;;;7.90;99.90;;;;;;5102050;28;20191;-79
2021/05/28 03:05:02;;;;;;;1.60;1.50;;;7.90;99.90;;;;;;5101295;28;20172;-79
2021/05/28 03:07:28;;;;;;;1.93;1.30;;;7.90;99.90;;;;;;5068465;28;20184;-80
2021/05/28 03:09:54;;;;;;;1.87;1.30;;;7.90;99.90;;;;;;5067963;28;20211;-80
2021/05/28 03:12:20;;;;;;;1.63;1.30;;;7.90;99.90;;;;;;5084680;28;20209;-80
2021/05/28 03:14:45;;;;;;;3.37;1.50;;;7.80;99.90;;;;;;5052466;28;20540;-79
2021/05/28 03:17:11;;;;;;;3.67;1.40;;;7.80;99.90;;;;;;5081819;28;20234;-80
2021/05/28 03:19:44;;;;;;;3.40;1.63;;;7.80;99.90;;;;;;5082904;28;20166;-80
2021/05/28 03:24:40;;;;;;;2.00;1.50;;;7.80;99.90;;;;;;5081975;28;20674;-80
2021/05/28 03:27:05;;;;;;;1.70;1.30;;;7.80;99.90;;;;;;5063910;28;20188;-80
2021/05/28 03:29:31;;;;;;;2.17;1.67;;;7.70;99.90;;;;;;5063973;28;20559;-79
2021/05/28 03:31:57;;;;;;;2.70;1.70;;;7.80;99.90;;;;;;5064355;28;20208;-80
2021/05/28 03:34:22;;;;;;;2.73;1.90;;;7.80;99.90;;;;;;5064419;28;20392;-79
2021/05/28 03:36:48;;;;;;;5.13;1.70;;;7.90;99.90;;;;;;5082679;28;20181;-79
2021/05/28 03:39:14;;;;;;;3.27;2.07;;;8.00;99.90;;;;;;5082748;28;20181;-80
2021/05/28 03:41:40;;;;;;;5.63;2.60;;;8.00;99.90;;;;;;5066535;28;20228;-80
2021/05/28 03:44:08;;;;;;;4.40;2.00;;;8.10;99.90;;;;;;5081773;28;20642;-80
2021/05/28 03:46:34;;;;;;;3.40;2.70;;;8.10;99.90;;;;;;5081361;28;20181;-79
2021/05/28 03:49:00;;;;;;;3.93;2.67;;;8.10;99.90;;;;;;5081826;28;20255;-79
2021/05/28 03:51:27;;;;;;;3.43;2.10;;;8.20;99.90;;;;;;5081594;28;20197;-79
2021/05/28 03:53:54;;;;;;;5.70;2.63;;;8.10;99.90;;;;;;5067983;28;20253;-79
2021/05/28 03:56:19;;;;;;;4.23;2.53;;;8.20;99.90;;;;;;5086703;28;20180;-80
2021/05/28 03:58:46;;;;;;;6.60;2.93;;;8.20;99.90;;;;;;5088692;28;20169;-80
2021/05/28 04:04:34;;;;;;;5.13;2.70;;;8.20;99.90;;;;;;5106139;28;20187;-80
2021/05/28 04:07:01;;;;;;;4.83;2.73;;;8.20;99.90;;;;;;5072798;28;20174;-80
2021/05/28 04:09:28;;;;;;;5.30;2.77;;;8.20;99.90;;;;;;5088759;28;20181;-80
2021/05/28 04:11:56;;;;;;;4.83;3.20;;;8.20;99.90;;;;;;5072946;28;20321;-80
2021/05/28 04:14:22;;;;;;;4.90;3.40;;;8.20;99.90;;;;;;5090600;28;20207;-79
2021/05/28 04:16:47;;;;;;;5.17;3.13;;;8.20;99.90;;;;;;5073025;28;20712;-80
2021/05/28 04:19:13;;;;;;;4.73;3.27;;;8.30;99.90;;;;;;5089478;28;20180;-80
2021/05/28 04:21:39;;;;;;;5.50;2.90;;;8.20;99.90;;;;;;5061441;28;20200;-79
2021/05/28 04:24:06;;;;;;;4.40;3.07;;;8.20;99.90;;;;;;5071316;28;20245;-80
2021/05/28 04:26:31;;;;;;;5.90;2.97;;;8.20;99.90;;;;;;5087766;28;20180;-80
2021/05/28 04:28:57;;;;;;;5.47;3.60;;;8.30;99.90;;;;;;5072194;28;20189;-80
2021/05/28 04:31:22;;;;;;;5.37;3.20;;;8.30;99.90;;;;;;5089075;28;20207;-80
2021/05/28 04:33:49;;;;;;;6.27;3.90;;;8.20;99.90;;;;;;5083673;28;20594;-76
2021/05/28 04:36:14;;;;;;;5.60;3.30;;;8.30;99.90;;;;;;5060553;28;20175;-76
2021/05/28 04:38:40;;;;;;;6.03;3.43;;;8.30;99.90;;;;;;5060722;28;20280;-76
2021/05/28 04:41:06;;;;;;;5.20;3.40;;;8.20;99.90;;;;;;5062159;28;20714;-78
2021/05/28 04:43:31;;;;;;;5.70;3.57;;;8.20;99.90;;;;;;5066868;28;20260;-80
2021/05/28 04:45:58;;;;;;;6.73;3.07;;;8.20;99.90;;;;;;5083369;28;20171;-78
2021/05/28 04:48:24;;;;;;;4.63;3.17;;;8.20;99.90;;;;;;5096525;28;20231;-77
2021/05/28 04:50:49;;;;;;;4.93;3.03;;;8.10;99.90;;;;;;5079674;28;20709;-75
2021/05/28 04:53:15;;;;;;;6.03;3.50;;;8.20;99.90;;;;;;5076385;28;20655;-76
2021/05/28 04:55:41;;;;;;;7.27;3.90;;;8.30;99.90;;;;;;5077461;28;20225;-76
2021/05/28 04:58:06;;;;;;;5.90;3.47;;;8.30;99.90;;;;;;5093172;28;20183;-77
2021/05/28 05:00:33;;;;;;;5.30;3.37;;;8.30;99.90;;;;;;5094018;28;20221;-78
2021/05/28 05:02:59;;;;;;;7.20;3.77;;;8.30;99.90;;;;;;5061572;28;20767;-77
2021/05/28 05:05:26;;;;;;;5.80;3.30;;;8.40;99.90;;;;;;5052848;28;20178;-77
2021/05/28 05:07:52;;;;;;;5.93;3.53;;;8.40;99.90;;;;;;5074226;28;20173;-77
2021/05/28 05:10:17;;;;;;;4.87;3.30;;;8.40;99.90;;;;;;5057517;28;20283;-78
2021/05/28 05:12:43;;;;;;;5.73;3.50;;;8.40;99.90;;;;;;5043816;28;20209;-77
2021/05/28 05:15:10;;;;;;;6.37;3.50;;;8.40;99.90;;;;;;5041966;28;20176;-78
2021/05/28 05:17:36;;;;;;;5.40;3.60;;;8.40;99.90;;;;;;5058494;28;20263;-77
2021/05/28 05:20:04;;;;;;;7.57;4.07;;;8.50;99.90;;;;;;5073877;28;20198;-79
2021/05/28 05:22:29;;;;;;;7.93;3.40;;;8.50;99.90;;;;;;5043531;28;20208;-77
2021/05/28 05:24:55;;;;;;;4.27;3.30;;;8.50;99.90;;;;;;5081875;28;20574;-77
2021/05/28 05:27:20;;;;;;;7.17;3.97;;;8.50;99.90;;;;;;5078811;28;20193;-76
2021/05/28 05:29:46;;;;;;;6.67;3.60;;;8.60;99.90;;;;;;5077952;28;20190;-77
2021/05/28 05:32:12;;;;;;;6.37;3.90;;;8.60;99.90;;;;;;5059702;28;20205;-78
2021/05/28 05:34:38;;;;;;;5.47;3.80;;;8.60;99.90;;;;;;5077721;28;20541;-77
2021/05/28 05:37:05;;;;;;;4.80;3.43;;;8.60;99.90;;;;;;5079069;28;20180;-78
2021/05/28 05:39:31;;;;;;;7.07;4.17;;;8.60;99.90;;;;;;5079222;28;20194;-78
2021/05/28 05:41:58;;;;;;;5.70;3.33;;;8.70;99.90;;;;;;5075694;28;20181;-78
2021/05/28 05:44:24;;;;;;;6.07;3.57;;;8.70;99.90;;;;;;5062138;28;20224;-77
2021/05/28 05:46:50;;;;;;;5.67;3.40;;;8.70;99.90;;;;;;5060925;28;20667;-78
2021/05/28 05:49:16;;;;;;;6.53;3.67;;;8.80;99.90;;;;;;5078105;28;20180;-78
2021/05/28 05:51:42;;;;;;;6.10;3.70;;;8.90;99.90;;;;;;5077212;28;20207;-78
2021/05/28 05:54:07;;;;;;;7.27;3.60;;;8.90;99.90;;;;;;5062531;28;20184;-78
2021/05/28 05:56:33;;;;;;;4.40;3.13;;;9.00;99.90;;;;;;5078944;28;20579;-78
2021/05/28 05:58:59;;;;;;;5.73;3.80;;;9.00;99.90;;;;;;5077495;28;20623;-78
2021/05/28 06:01:28;;;;;;;5.70;3.47;;;9.00;99.90;;;;;;5094255;28;20235;-78
2021/05/28 06:03:54;;;;;;;4.73;3.30;;;9.10;99.90;;;;;;5077673;28;20181;-78
2021/05/28 06:06:21;;;;;;;5.90;4.03;;;9.00;99.90;;;;;;5077730;28;20170;-78
2021/05/28 06:08:47;;;;;;;4.57;3.27;;;9.10;99.90;;;;;;5060619;28;20175;-78
2021/05/28 06:11:13;;;;;;;5.73;3.43;;;9.10;99.90;;;;;;5077319;28;20651;-78
2021/05/28 06:13:38;;;;;;;5.90;3.50;;;9.10;99.90;;;;;;5071501;28;20287;-78
2021/05/28 06:16:04;;;;;;;5.80;3.03;;;9.00;99.90;;;;;;5082085;28;20530;-78
2021/05/28 06:18:30;;;;;;;5.83;3.57;;;8.90;99.90;;;;;;5057221;28;20611;-78
2021/05/28 06:20:56;;;;;;;5.67;3.23;;;8.80;99.90;;;;;;5040563;28;20201;-78
2021/05/28 06:23:22;;;;;;;5.97;3.00;;;8.80;99.90;;;;;;5040735;28;20313;-78
2021/05/28 06:25:47;;;;;;;4.37;2.93;;;8.90;99.90;;;;;;5074421;28;20192;-77
2021/05/28 06:28:14;;;;;;;3.10;2.67;;;8.90;99.90;;;;;;5103688;28;20188;-78
2021/05/28 06:30:39;;;;;;;4.07;2.80;;;9.00;99.90;;;;;;5088438;28;20204;-78
2021/05/28 06:33:05;;;;;;;4.40;3.17;;;9.00;99.90;;;;;;5039510;28;20212;-77
2021/05/28 06:35:32;;;;;;;4.57;3.13;;;9.00;99.90;;;;;;5040667;28;20181;-79
2021/05/28 06:37:57;;;;;;;5.23;3.23;;;9.00;99.90;;;;;;5072684;28;20639;-78
2021/05/28 06:40:23;;;;;;;5.33;3.20;;;9.10;99.90;;;;;;5072017;28;20215;-77
2021/05/28 06:42:49;;;;;;;4.27;3.03;;;9.20;99.90;;;;;;5038110;28;20648;-77
2021/05/28 06:45:17;;;;;;;5.30;3.03;;;9.30;99.90;;;;;;5054907;28;20196;-77
2021/05/28 06:47:44;;;;;;;4.83;3.00;;;9.40;99.90;;;;;;5038784;28;20217;-77
2021/05/28 06:50:11;;;;;;;4.43;2.90;;;9.40;99.90;;;;;;5038121;28;20290;-77
2021/05/28 06:52:37;;;;;;;5.40;3.60;;;9.30;99.90;;;;;;5054941;28;20213;-77
2021/05/28 06:55:03;;;;;;;4.27;2.70;;;9.30;99.90;;;;;;5073197;28;20263;-77
2021/05/28 06:57:29;;;;;;;3.67;2.70;;;9.20;99.90;;;;;;5038968;28;20188;-78
2021/05/28 07:03:28;;;;;;;5.33;3.17;;;9.40;99.90;;;;;;5032406;28;20691;-79
2021/05/28 07:05:53;;;;;;;6.53;4.57;;;9.40;99.90;;;;;;4998643;28;20205;-77
2021/05/28 07:08:22;;;;;;;5.63;3.47;;;9.40;99.90;;;;;;5074294;28;20284;-77
2021/05/28 07:14:09;;;;;;;3.63;2.83;;;9.70;99.90;;;;;;5093219;28;20187;-79
2021/05/28 07:19:57;;;;;;;4.03;2.87;;;9.90;99.90;;;;;;5092046;28;20204;-78
2021/05/28 07:22:23;;;;;;;3.97;2.70;;;10.00;99.90;;;;;;5074621;28;20184;-78
2021/05/28 07:24:50;;;;;;;4.43;3.37;;;10.00;99.90;;;;;;5075161;28;20169;-77
2021/05/28 07:27:16;;;;;;;3.63;2.60;;;9.90;99.90;;;;;;5075176;28;20222;-78
2021/05/28 07:29:43;;;;;;;5.90;2.93;;;10.00;99.90;;;;;;5062727;28;20641;-77
2021/05/28 07:32:09;;;;;;;3.27;2.80;;;10.20;99.90;;;;;;5095825;28;20227;-77
2021/05/28 07:34:38;;;;;;;4.77;3.00;;;10.40;99.90;;;;;;5096186;28;20369;-79
2021/05/28 07:37:03;;;;;;;3.80;2.80;;;10.60;99.90;;;;;;5080016;28;20355;-78
2021/05/28 07:39:30;;;;;;;4.80;3.17;;;10.70;99.90;;;;;;5095918;28;20240;-78
2021/05/28 07:41:56;;;;;;;4.80;3.00;;;11.00;99.90;;;;;;5079347;28;20207;-78
2021/05/28 07:44:22;;;;;;;4.63;2.83;;;11.30;99.90;;;;;;5063455;28;20573;-79
2021/05/28 07:46:48;;;;;;;4.73;2.93;;;11.60;99.90;;;;;;5063761;28;20183;-79
2021/05/28 07:49:14;;;;;;;3.47;2.33;;;11.70;99.90;;;;;;5079575;28;20184;-79
2021/05/28 07:51:41;;;;;;;4.60;3.10;;;12.20;99.90;;;;;;5063120;28;20646;-79
2021/05/28 07:54:08;;;;;;;3.73;2.83;;;12.70;99.90;;;;;;5080416;28;20184;-79
2021/05/28 07:56:33;;;;;;;3.97;2.43;;;13.10;99.90;;;;;;5063401;28;20173;-79
2021/05/28 07:58:59;;;;;;;3.63;2.90;;;13.50;99.90;;;;;;5079791;28;20204;-79
2021/05/28 08:01:26;;;;;;;3.87;2.47;;;13.60;99.90;;;;;;5097714;28;20231;-79
2021/05/28 08:03:53;;;;;;;3.97;2.80;;;13.70;99.90;;;;;;5064328;28;20225;-79
2021/05/28 08:06:19;;;;;;;3.60;2.50;;;13.90;99.90;;;;;;5063086;28;20203;-79
2021/05/28 08:08:44;;;;;;;3.90;3.00;;;13.90;99.90;;;;;;5079339;28;20231;-79
2021/05/28 08:11:10;;;;;;;4.07;2.80;;;13.90;99.90;;;;;;5063330;28;20208;-79
2021/05/28 08:13:36;;;;;;;3.30;2.60;;;13.80;99.90;;;;;;5096849;28;20205;-79
2021/05/28 08:16:02;;;;;;;2.97;2.30;;;13.70;99.90;;;;;;5080560;28;20538;-79
2021/05/28 08:18:29;;;;;;;3.43;2.60;;;14.00;99.90;;;;;;5079691;28;20177;-79
2021/05/28 08:20:55;;;;;;;2.73;2.20;;;14.20;99.90;;;;;;5079480;28;20258;-79
2021/05/28 08:23:21;;;;;;;2.10;1.70;;;14.30;99.90;;;;;;5063487;28;20177;-79
2021/05/28 08:25:49;;;;;;;3.00;2.10;;;14.40;99.90;;;;;;5063514;28;20555;-79
2021/05/28 08:28:16;;;;;;;5.60;2.20;;;14.60;99.90;;;;;;5063625;28;20183;-79
2021/05/28 08:30:43;;;;;;;2.23;2.00;;;14.70;99.90;;;;;;5079782;28;20231;-79
2021/05/28 08:39:53;;;;;;;2.47;2.00;;;14.60;99.90;;;;;;5096451;28;20265;-79
2021/05/28 08:42:20;;;;;;;3.43;2.20;;;15.10;99.90;;;;;;5063009;28;20177;-79
2021/05/28 08:44:45;;;;;;;2.37;2.10;;;15.20;99.90;;;;;;5079309;28;20183;-79
2021/05/28 08:47:12;;;;;;;3.13;2.30;;;15.30;99.90;;;;;;5062311;28;20180;-79
2021/05/28 08:49:39;;;;;;;2.20;1.77;;;15.20;99.90;;;;;;5079243;28;20181;-79
2021/05/28 08:52:05;;;;;;;3.70;2.37;;;15.10;99.90;;;;;;5079192;28;20738;-79
2021/05/28 08:54:32;;;;;;;2.83;2.17;;;14.90;99.90;;;;;;5096181;28;20185;-79
2021/05/28 08:56:57;;;;;;;3.10;1.83;;;14.80;99.90;;;;;;5079076;28;20173;-79
2021/05/28 08:59:24;;;;;;;2.70;2.20;;;14.70;99.90;;;;;;5095214;28;20593;-79
2021/05/28 09:01:50;;;;;;;2.37;2.17;;;14.50;99.90;;;;;;5062298;28;20254;-80
2021/05/28 09:04:15;;;;;;;2.43;2.00;;;14.40;99.90;;;;;;5077483;28;20185;-79
2021/05/28 09:06:45;;;;;;;2.93;2.17;;;14.40;99.90;;;;;;5079256;28;20189;-79
2021/05/28 09:19:22;;;;;;;3.47;2.70;;;15.20;99.90;;;;;;5097188;28;20243;-79
2021/05/28 09:21:53;;;;;;;2.57;2.13;;;15.20;99.90;;;;;;5079193;28;20205;-79
2021/05/28 09:24:35;;;;;;;2.27;1.93;;;15.20;99.90;;;;;;5096241;28;20177;-79
2021/05/28 09:27:24;;;;;;;2.63;1.77;;;14.90;99.90;;;;;;5098230;28;20196;-79
2021/05/28 09:30:10;;;;;;;2.27;1.73;;;14.90;99.90;;;;;;5096225;28;20184;-79
2021/05/28 09:32:38;;;;;;;2.87;1.87;;;15.10;99.90;;;;;;5079624;28;20207;-78
2021/05/28 09:35:05;;;;;;;2.53;2.00;;;15.00;99.90;;;;;;5078043;28;20263;-78
2021/05/28 09:37:51;;;;;;;3.07;2.27;;;15.20;99.90;;;;;;5061547;28;20177;-78
2021/05/28 09:40:23;;;;;;;2.33;1.67;;;15.60;99.90;;;;;;5094990;28;20646;-79
2021/05/28 09:46:30;;;;;;;2.30;1.60;;;15.70;99.90;;;;;;5097009;28;20703;-79
2021/05/28 09:59:06;;;;;;;3.47;1.90;;;15.70;99.90;;;;;;5094571;28;20580;-79
2021/05/28 10:05:37;;;;;;;2.30;1.57;;;16.10;99.90;;;;;;5095617;28;20242;-78
2021/05/28 10:14:49;;;;;;;1.57;1.47;;;16.30;99.90;;;;;;5095273;28;20183;-78
2021/05/28 10:17:15;;;;;;;4.00;1.80;;;16.30;99.90;;;;;;5077474;28;20577;-79
2021/05/28 10:19:41;;;;;;;1.97;1.43;;;16.20;99.90;;;;;;5077406;28;20169;-78
2021/05/28 10:22:07;;;;;;;1.90;1.60;;;16.20;99.90;;;;;;5060912;28;20173;-79
2021/05/28 10:24:32;;;;;;;1.80;1.50;;;16.20;99.90;;;;;;5077958;28;20176;-79
2021/05/28 10:26:58;;;;;;;2.40;1.77;;;16.40;99.90;;;;;;5094401;28;20180;-79
2021/05/28 10:29:28;;;;;;;2.33;1.60;;;16.50;99.90;;;;;;5077510;28;20181;-79
2021/05/28 10:31:59;;;;;;;1.83;1.50;;;16.60;99.90;;;;;;5078181;28;20216;-79
2021/05/28 10:34:27;;;;;;;1.80;1.40;;;16.70;99.90;;;;;;5077262;28;20188;-79
2021/05/28 10:36:54;;;;;;;2.50;1.50;;;16.80;99.90;;;;;;5060623;28;20668;-78
2021/05/28 10:39:20;;;;;;;1.97;1.60;;;16.80;99.90;;;;;;5060368;28;20201;-78
2021/05/28 10:41:54;;;;;;;2.23;1.60;;;16.80;99.90;;;;;;5060678;28;20207;-79
2021/05/28 10:44:26;;;;;;;1.70;1.57;;;16.70;99.90;;;;;;5077383;28;20637;-78
2021/05/28 10:47:11;;;;;;;1.43;1.33;;;16.80;99.90;;;;;;5077046;28;20188;-79
2021/05/28 10:49:50;;;;;;;1.10;1.00;;;16.90;99.90;;;;;;5087882;28;20192;-78
2021/05/28 10:52:37;;;;;;;2.27;1.40;;;16.90;99.90;;;;;;5094106;28;20218;-79
2021/05/28 10:55:12;;;;;;;2.13;1.23;;;16.90;99.90;;;;;;5076844;28;20209;-78
2021/05/28 10:57:55;;;;;;;1.60;1.50;;;17.00;99.90;;;;;;5076905;28;20199;-78
2021/05/28 11:00:30;;;;;;;2.57;1.40;;;16.90;99.90;;;;;;5061213;28;20338;-79
2021/05/28 11:03:09;;;;;;;2.13;1.50;;;16.90;99.90;;;;;;5059220;28;20184;-78
2021/05/28 11:05:40;;;;;;;1.43;1.30;;;17.00;99.90;;;;;;5093729;28;20185;-79
2021/05/28 11:08:42;;;;;;;1.20;1.10;;;17.10;99.90;;;;;;5077486;28;20232;-78
2021/05/28 11:11:08;;;;;;;1.40;1.10;;;17.20;99.90;;;;;;5085929;28;20235;-77
2021/05/28 11:13:53;;;;;;;1.60;1.20;;;17.20;99.90;;;;;;5070345;28;20248;-77
2021/05/28 11:16:19;;;;;;;1.63;1.40;;;17.20;99.90;;;;;;5077489;28;20168;-76
2021/05/28 11:18:44;;;;;;;1.60;1.17;;;17.40;99.90;;;;;;5087469;28;20203;-77
2021/05/28 11:21:18;;;;;;;1.50;0.93;;;17.60;99.90;;;;;;5083729;28;20680;-77
2021/05/28 11:23:44;;;;;;;1.07;0.90;;;17.60;99.90;;;;;;5079919;28;20185;-77
2021/05/28 11:26:14;;;;;;;1.53;1.27;;;17.50;99.90;;;;;;5073896;28;20191;-77
2021/05/28 11:28:55;;;;;;;1.27;1.13;;;17.40;99.90;;;;;;5080573;28;20168;-77
2021/05/28 11:31:22;;;;;;;1.00;0.90;;;17.50;99.90;;;;;;5100379;28;20662;-77
2021/05/28 11:33:54;;;;;;;2.27;1.20;;;17.50;99.90;;;;;;5058568;28;20204;-78
2021/05/28 11:36:31;;;;;;;1.63;1.00;;;17.50;99.90;;;;;;5081309;28;20199;-79
2021/05/28 11:38:58;;;;;;;1.37;1.00;;;17.60;99.90;;;;;;5112731;28;20215;-78
2021/05/28 11:41:59;;;;;;;0.67;0.60;;;17.70;99.90;;;;;;5096517;28;20206;-77
2021/05/28 11:44:26;;;;;;;1.13;1.03;;;17.80;99.90;;;;;;5116429;28;20633;-78
2021/05/28 11:46:52;;;;;;;1.03;0.83;;;17.90;99.90;;;;;;5081281;28;20660;-79
2021/05/28 11:49:19;;;;;;;2.40;1.10;;;18.00;99.90;;;;;;5077329;28;20257;-78
2021/05/28 11:51:44;;;;;;;1.50;1.20;;;18.00;99.90;;;;;;5077596;28;20208;-79
2021/05/28 11:54:22;;;;;;;1.77;1.40;;;18.00;99.90;;;;;;5059227;28;20178;-78
2021/05/28 11:56:52;;;;;;;2.77;1.00;;;18.00;99.90;;;;;;5075562;28;20169;-78
2021/05/28 11:59:18;;;;;;;1.03;0.70;;;17.90;99.90;;;;;;5085166;28;20267;-78
2021/05/28 12:01:44;;;;;;;1.00;0.90;;;17.80;99.90;;;;;;5078169;28;20281;-78
2021/05/28 12:04:19;;;;;;;1.43;0.77;;;17.70;99.90;;;;;;5057104;28;20238;-76
2021/05/28 12:06:45;;;;;;;1.13;0.80;;;17.90;99.90;;;;;;5090829;28;20176;-76
2021/05/28 12:09:11;;;;;;;1.27;0.90;;;17.90;99.90;;;;;;5057536;28;20177;-75
2021/05/28 12:11:37;;;;;;;2.17;0.90;;;17.90;99.90;;;;;;5073721;28;20252;-75
2021/05/28 12:14:02;;;;;;;0.97;0.60;;;17.80;99.90;;;;;;5091794;28;20670;-76
2021/05/28 12:16:28;;;;;;;1.47;0.60;;;17.80;99.90;;;;;;5077480;28;20678;-76
2021/05/28 12:18:53;;;;;;;0.90;0.70;;;17.70;99.90;;;;;;5067563;28;20741;-77
2021/05/28 12:21:21;;;;;;;0.80;0.70;;;17.80;99.90;;;;;;5079442;28;20281;-76
2021/05/28 12:23:47;;;;;;;0.70;0.70;;;18.00;99.90;;;;;;5074256;28;20181;-76
2021/05/28 12:26:20;;;;;;;0.50;0.47;;;18.30;99.90;;;;;;5074471;28;20177;-76
2021/05/28 12:28:55;;;;;;;1.93;0.70;;;18.20;99.90;;;;;;5073740;28;20264;-76
2021/05/28 12:31:27;;;;;;;1.23;0.70;;;18.10;99.90;;;;;;5057638;28;20596;-76
2021/05/28 12:33:58;;;;;;;1.23;0.70;;;18.10;99.90;;;;;;5090258;28;20209;-77
2021/05/28 12:36:27;;;;;;;1.30;0.90;;;18.10;99.90;;;;;;5095800;28;20214;-76
2021/05/28 12:38:53;;;;;;;1.70;0.93;;;18.00;99.90;;;;;;5060261;28;20287;-77
2021/05/28 12:41:27;;;;;;;1.53;0.80;;;18.20;99.90;;;;;;5062367;28;20223;-77
2021/05/28 12:43:53;;;;;;;1.10;0.60;;;18.20;99.90;;;;;;5060744;28;20208;-77
2021/05/28 12:46:27;;;;;;;1.03;0.80;;;18.50;99.90;;;;;;5076951;28;20181;-77
2021/05/28 12:48:57;;;;;;;0.97;0.80;;;18.80;99.90;;;;;;5077502;28;20168;-76
2021/05/28 12:51:32;;;;;;;1.40;0.90;;;18.90;99.90;;;;;;5077164;28;20196;-78
2021/05/28 12:53:59;;;;;;;1.03;0.93;;;18.60;99.90;;;;;;5078991;28;20208;-79
2021/05/28 12:56:26;;;;;;;0.97;0.70;;;18.40;99.90;;;;;;5064555;28;20181;-79
2021/05/28 12:58:52;;;;;;;0.83;0.73;;;18.40;99.90;;;;;;5064167;28;20879;-79
2021/05/28 13:01:20;;;;;;;0.60;0.50;;;18.50;99.90;;;;;;5054119;28;20197;-77
2021/05/28 13:03:48;;;;;;;0.40;0.40;;;18.50;99.90;;;;;;5059228;28;20270;-78
2021/05/28 13:06:23;;;;;;;0.77;0.60;;;18.20;99.90;;;;;;5076880;28;20239;-80
2021/05/28 13:08:54;;;;;;;0.80;0.70;;;18.00;99.90;;;;;;5078215;28;20187;-78
2021/05/28 13:11:19;;;;;;;0.90;0.70;;;17.90;99.90;;;;;;5076024;28;20683;-78
2021/05/28 13:13:47;;;;;;;0.50;0.50;;;18.00;99.90;;;;;;5058652;28;20216;-77
2021/05/28 13:16:12;;;;;;;0.63;0.53;;;18.20;99.90;;;;;;5056973;28;20548;-77
2021/05/28 13:18:41;;;;;;;0.67;0.40;;;18.30;99.90;;;;;;5056411;28;20209;-77
2021/05/28 13:21:21;;;;;;;1.13;0.60;;;18.30;99.90;;;;;;5073200;28;20250;-77
2021/05/28 13:23:46;;;;;;;0.97;0.70;;;18.10;99.90;;;;;;5057798;28;20184;-79
2021/05/28 13:26:13;;;;;;;1.57;1.20;;;18.10;99.90;;;;;;5088365;28;20178;-78
2021/05/28 13:28:39;;;;;;;1.00;0.80;;;18.30;99.90;;;;;;5057803;28;20177;-79
2021/05/28 13:31:10;;;;;;;0.87;0.70;;;18.60;99.90;;;;;;5051636;28;20227;-78
2021/05/28 13:33:39;;;;;;;1.30;0.70;;;18.70;99.90;;;;;;5046351;28;20284;-80
2021/05/28 13:36:05;;;;;;;0.80;0.67;;;18.80;99.90;;;;;;5085428;28;20247;-79
2021/05/28 13:38:32;;;;;;;0.53;0.53;;;18.90;99.90;;;;;;5082565;28;20181;-80
2021/05/28 13:41:00;;;;;;;0.60;0.60;;;18.90;99.90;;;;;;5062019;28;20352;-81
2021/05/28 13:43:29;;;;;;;0.73;0.70;;;18.90;99.90;;;;;;5057662;28;20650;-83
2021/05/28 13:45:54;;;;;;;0.80;0.70;;;19.00;99.90;;;;;;5042543;28;20181;-81
2021/05/28 13:48:20;;;;;;;0.93;0.83;;;19.00;99.90;;;;;;5042515;28;20200;-79
2021/05/28 13:50:47;;;;;;;1.20;1.00;;;19.10;99.90;;;;;;5042656;28;20260;-83
2021/05/28 13:53:13;;;;;;;0.87;0.80;;;19.00;99.90;;;;;;5090864;28;20201;-78